Alejandro Lopez

Olheiro-Chefe - Wanderers
20 Fev 2028
Domingo
Processo

Personalidade

Adaptabilidade (8) Ambição (13) Controvérsia (12) Lealdade (4) Pressão (12) Profissionalismo (17) Espírito Esportivo (9) Temperamento (3)

Perfil

Estilo de Treinamento Democrático
Licença Continental C
Determinação 6
Gestão de Pessoas 8
Motivação 7
Disciplina 4
Satisfação no Trabalho
100%
Fadiga
0%
Função Olheiro-Chefe
Salário 20.1K p/s
Contrato 14.03.2029

Desempenho

Comportamento Bom
Eficácia do Treinamento
31%
Desenvolvimento do Jogador
60%
Prevenção de Lesões
25%
Implementação Tática
30%

Eventos Recentes

Participou de uma reunião de recrutamento agora
Recomendou um alvo de transferência agora
Recomendou um alvo de transferência agora
Participou de uma reunião de recrutamento 7d atrás
Recomendou um alvo de transferência 7d atrás
Recomendou um alvo de transferência 7d atrás
Participou de uma reunião de recrutamento 7d atrás
Participou de uma reunião de recrutamento 7d atrás

Monitorando agora

103
Jogador Clube Status Habilidade Confiança Observado Última observação Último voto
Dion Beljo Standard Liege Negociando 131 / 132 66% 1 01.06.2027 Aprovar
Vittorio Magno Atenas Ativo 99 / 101 69% 1 01.06.2027 Aprovar
Víctor Guzmán Sporting CP Ativo 105 / 107 40% 1 31.05.2027 -
Hazeem Bakre Crawley Town Ativo 83 / 75 40% 1 31.05.2027 -
George Wickens Lincoln City Ativo 117 / 127 40% 4 29.05.2027 -
Murphy Cooper Plymouth Argyle Ativo 110 / 132 40% 3 29.05.2027 -
William Rovida Pro Patria Ativo 102 / 98 40% 1 29.05.2027 -
Bradley Mabunda SuperSport United Ativo 117 / 101 40% 5 28.05.2027 -
Lucas Bruera Carabobo Ativo 119 / 126 40% 2 28.05.2027 -
Cesare Galeotti Trapani Ativo 111 / 123 40% 1 27.05.2027 -
Corey Addai Stockport County Ativo 115 / 115 40% 1 27.05.2027 -
Jordan Amissah Burton Albion Ativo 113 / 93 40% 2 26.05.2027 -
Leonardo Marson Gubbio Ativo 98 / 117 40% 1 25.05.2027 -
Michael Cooper Sheffield United Ativo 125 / 129 40% 8 24.05.2027 -
Davide Mastrantonio Latina Ativo 90 / 97 40% 1 24.05.2027 -
Sergio Barlocco Trento Ativo 124 / 107 40% 3 23.05.2027 -
Balázs Tóth Blackburn Rovers Ativo 128 / 116 40% 1 21.05.2027 -
Luke Southwood Bristol Rovers Ativo 108 / 101 40% 4 19.05.2027 -
Killian Cahill Leyton Orient Ativo 92 / 96 40% 2 18.05.2027 -
Egil Selvik Watford Ativo 122 / 114 40% 4 17.05.2027 -
Filip Marschall Stevenage Ativo 107 / 126 40% 4 17.05.2027 -
Daniel Iversen Preston Ativo 116 / 142 40% 5 15.05.2027 -
Matteo Rizzo Cosenza Ativo 111 / 123 40% 1 14.05.2027 -
Zach Hemming Chesterfield Ativo 118 / 116 40% 3 10.05.2027 -
Alfie Whiteman Newport County Ativo 118 / 94 40% 3 06.05.2027 -
Riccardo Gagno Vicenza Ativo 118 / 113 40% 2 04.05.2027 -
Arijanet Murić Sassuolo Ativo 145 / 140 40% 2 02.05.2027 -
Francesco D'Alterio Ternana Ativo 96 / 105 40% 1 02.05.2027 -
Michele Cerofolini Bari Ativo 131 / 135 40% 1 27.04.2027 -
Tommaso Cucchietti Potenza Ativo 100 / 114 40% 1 26.04.2027 -
Lukas Jensen Millwall Ativo 123 / 124 40% 1 21.04.2027 -
Will Dennis Milton Keynes Dons Ativo 105 / 108 40% 2 18.04.2027 -
Jake Turner Gillingham Ativo 102 / 91 40% 2 09.04.2027 -
Juan Álvarez Uruguay Montevideo Ativo 94 / 94 30% 1 / 1m 17.03.2027 -
Teo Cohen Albion Ativo 85 / 88 30% 1 / 1m 17.03.2027 -
Sayfallah Ltaief Cracovia Ativo 111 / 119 40% 1 21.12.2026 -
Brandon Márquez Sarmiento Ativo 100 / 110 40% 1 03.12.2026 -
Jonás Luna Santa Clara Ativo 129 / 122 40% 4 29.11.2026 Observar
Alan Cisnero Shukura Ativo 101 / 117 40% 2 29.11.2026 -
Petar Stanić Ludogorets Ativo 137 / 121 40% 1 28.11.2026 -
Williams Manyama SuperSport United Ativo 126 / 128 40% 1 28.11.2026 -
Dilan Gerez River Plate Ativo 95 / 101 40% 3 25.11.2026 -
Fletcher Holman Swindon Town Ativo 94 / 85 40% 1 25.11.2026 -
Román Albornoz Temperley Ativo 86 / 92 40% 1 24.11.2026 -
Maximo Ingravidi Colón Ativo 95 / 112 40% 1 24.11.2026 -
Lukáš Červ Viktoria Plzen Ativo 144 / 134 40% 1 23.11.2026 Mais informações
Joaquín Rivero Instituto Ativo 98 / 99 40% 1 23.11.2026 -
Ezekiel Kwame Alladoh Philadelphia Union Ativo 121 / 120 40% 2 22.11.2026 -
Leandro Lozano Boca Juniors Ativo 132 / 122 40% 2 20.11.2026 -
Manuel Duarte Barracas Central Ativo 126 / 125 40% 1 20.11.2026 -
Jerónimo Russo Newell's Old Boys Ativo 100 / 106 40% 2 16.11.2026 -
Youssoufa Moukoko FC Copenhagen Ativo 128 / 134 40% 2 13.11.2026 -
Hassan Beja AFC Leopards Ativo 76 / 92 40% 1 13.11.2026 -
Renzo Machado Liverpool Montevideo Ativo 114 / 113 40% 3 07.11.2026 -
Bogdan Petrović TSC Ativo 91 / 121 40% 1 02.11.2026 -
Alex Luna Instituto Ativo 134 / 135 40% 1 31.10.2026 Mais informações
Mariano Bracamonte Deportivo Riestra Ativo 112 / 121 40% 1 31.10.2026 -
Branco Ripoll Aldosivi Ativo 94 / 102 40% 1 28.10.2026 -
Dylan Cabral Arsenal Ativo 92 / 111 40% 2 26.10.2026 -
Alejandro Garay Independiente Ativo 84 / 87 40% 1 26.10.2026 -
Martín Garay Tigre Ativo 129 / 110 40% 1 25.10.2026 -
Sebastián Medina Tigre Ativo 125 / 118 40% 1 25.10.2026 -
Tomás Romero Unión de Santa Fe Ativo 90 / 97 40% 2 21.10.2026 -
Misael Sosa Godoy Cruz Ativo 106 / 107 40% 1 21.10.2026 -
Brandon Verón San Lorenzo Ativo 80 / 85 40% 1 19.10.2026 -
Thiago Salischiker Rucci HNK Vukovar 1991 Ativo 88 / 94 40% 2 15.10.2026 -
Thiago Ponce Rosario Central Ativo 95 / 97 40% 2 13.10.2026 -
David Kalokoh Ajax Ativo 128 / 115 40% 1 12.10.2026 -
Vicente Poggi Godoy Cruz Ativo 123 / 122 40% 1 10.10.2026 -
Axel Batista Quilmes Ativo 119 / 108 40% 1 09.10.2026 -
Maico Quiroz Güemes Ativo 105 / 113 40% 1 09.10.2026 -
Yastin Cuevas Colo-Colo Ativo 85 / 95 40% 2 07.10.2026 -
Leonel Flores Boca Juniors Ativo 94 / 113 40% 1 04.10.2026 -
Juan Francisco Rossel Universidad Catolica Ativo 96 / 98 40% 2 02.10.2026 -
Diego Opazo Santiago Wanderers Ativo 74 / 89 40% 2 27.09.2026 -
Franco Sassone Defensores Ativo 88 / 95 40% 1 27.09.2026 -
Catriel Peña Racing Ativo 84 / 82 40% 1 23.09.2026 -
Thiago Perugini San Lorenzo Ativo 102 / 105 40% 1 22.09.2026 -
Thiago Yfran Temperley Ativo 94 / 86 40% 1 21.09.2026 -
Aaron Centurión Vélez Ativo 86 / 97 40% 1 18.09.2026 -
Francisco Robinson San Martín Ativo 82 / 97 40% 1 16.09.2026 -
Amaury Morales Pumas UNAM Ativo 102 / 111 40% 1 15.09.2026 -
Lucciano Reinoso Caracas Ativo 92 / 101 40% 1 14.09.2026 -
Ignacio Giacinti Patronato Ativo 83 / 105 40% 2 11.09.2026 -
Martín Ortega Atlético Tucumán Ativo 95 / 96 40% 1 11.09.2026 -
Javier Altamirano Universidad de Chile Ativo 113 / 130 40% 1 11.09.2026 -
Ricardo Solbes Unión de Santa Fe Ativo 87 / 95 40% 1 08.09.2026 -
Sebastián Santos Leon Ativo 120 / 122 40% 1 07.09.2026 -
Róyner Benítez Aguilas Doradas Ativo 112 / 109 40% 2 31.08.2026 -
Alan Coria Defensa y Justicia Ativo 94 / 106 40% 2 30.08.2026 -
Sergio Carrasco Cobresal Ativo 77 / 82 40% 1 27.08.2026 -
Derlis Martínez Olimpia Ativo 88 / 85 40% 1 26.08.2026 -
Yojan Garcés America de Cali Ativo 102 / 113 40% 2 25.08.2026 -
Jean Galindo Imotski Ativo 76 / 88 40% 1 25.08.2026 -
Patrick Preciado Deportivo Pasto Ativo 103 / 111 40% 1 24.08.2026 -
Fabricio Mendieta Belgrano Ativo 93 / 98 40% 1 22.08.2026 -
Alfredo Martínez Nacional Ativo 85 / 97 40% 1 19.08.2026 -
Franco Domínguez Ávila Estudiantes Ativo 92 / 95 40% 1 13.08.2026 -
Juan David Guillén Real Santander Ativo 83 / 85 40% 1 10.08.2026 -
Laureano Paez Colón Ativo 93 / 96 40% 1 09.08.2026 -
Cristhián Rivas Estudiantes de Merida Ativo 112 / 105 40% 1 04.08.2026 -
Juan Camilo Mosquera Atletico Bucaramanga Ativo 104 / 121 40% 1 04.08.2026 -
Nicolás Hernández Atletico Nacional Ativo 116 / 123 40% 1 02.08.2026 -